Time;durP1;ratioP1;P1;durP2;ratioP2;P2;SDS_P1;SDS_P2;PMS_P1;PMS_P2;Temp;Humidity;BMP_temperature;BMP_pressure;BME280_temperature;BME280_humidity;BME280_pressure;Samples;Min_cycle;Max_cycle;Signal;HPM_P1;HPM_P2
2021/08/27 00:07:11;;;;;;;1999.90;999.90;;;;;;;15.83;80.26;100509.66;15784663;28;20043;-62
2021/08/27 00:14:45;;;;;;;1999.90;999.90;;;;;;;15.80;80.21;100518.06;15782404;28;20036;-62
2021/08/27 00:22:17;;;;;;;1999.90;999.90;;;;;;;15.80;80.34;100504.78;15796518;28;20043;-61
2021/08/27 00:29:51;;;;;;;1999.90;999.90;;;;;;;15.82;80.05;100502.41;15768605;28;20051;-61
2021/08/27 00:37:23;;;;;;;1999.90;999.90;;;;;;;15.71;80.59;100494.97;15783627;28;20051;-62
2021/08/27 00:44:57;;;;;;;1999.90;999.90;;;;;;;15.76;80.47;100492.69;15773440;28;20044;-62
2021/08/27 00:52:29;;;;;;;1999.90;999.90;;;;;;;15.63;81.22;100484.75;15785553;28;20048;-61
2021/08/27 01:00:06;;;;;;;1999.90;999.90;;;;;;;15.56;81.27;100479.81;15771181;28;20501;-61
2021/08/27 01:07:48;;;;;;;1999.90;999.90;;;;;;;15.74;80.68;100483.00;15746492;28;20405;-61
2021/08/27 01:15:28;;;;;;;1999.90;999.90;;;;;;;15.72;80.89;100482.53;15749692;28;20457;-61
2021/08/27 01:23:15;;;;;;;1999.90;999.90;;;;;;;15.63;81.66;100482.78;15803202;28;20048;-59
2021/08/27 01:31:06;;;;;;;1999.90;999.90;;;;;;;15.64;81.60;100492.03;15768887;28;20416;-60
2021/08/27 01:38:43;;;;;;;;;;;;;;;15.49;81.88;100485.28;15751077;28;20044;-60
2021/08/27 01:46:17;;;;;;;1999.90;999.90;;;;;;;15.52;81.97;100492.97;15780962;28;19920;-62
2021/08/27 01:53:52;;;;;;;1999.90;999.90;;;;;;;15.52;82.46;100484.53;15766806;28;20044;-62
2021/08/27 02:01:26;;;;;;;1999.90;999.90;;;;;;;15.65;82.02;100490.84;15752890;28;20060;-61
2021/08/27 02:09:04;;;;;;;1999.90;999.90;;;;;;;15.54;81.94;100491.44;15766467;28;20466;-61
2021/08/27 02:16:37;;;;;;;1999.90;999.90;;;;;;;15.72;81.92;100482.53;15762602;28;20047;-61
2021/08/27 02:24:18;;;;;;;1999.90;999.90;;;;;;;15.74;81.69;100475.38;15754882;28;20410;-61
2021/08/27 02:31:59;;;;;;;1999.90;999.90;;;;;;;15.78;81.81;100472.59;15797407;28;20048;-62
2021/08/27 02:39:32;;;;;;;1999.90;999.90;;;;;;;15.74;82.08;100466.94;15770833;28;20071;-62
2021/08/27 02:47:06;;;;;;;1999.90;999.90;;;;;;;15.78;82.07;100458.53;15798358;28;20131;-61
2021/08/27 02:54:50;;;;;;;1999.90;999.90;;;;;;;15.97;81.72;100454.84;15789614;28;20046;-61
2021/08/27 03:02:23;;;;;;;1999.90;999.90;;;;;;;15.45;83.61;100451.47;15782867;28;20417;-62
2021/08/27 03:10:02;;;;;;;1999.90;999.90;;;;;;;15.65;82.77;100440.22;15789955;28;20095;-61
2021/08/27 03:17:40;;;;;;;1999.90;999.90;;;;;;;15.93;82.37;100420.19;15796641;28;20101;-60
2021/08/27 03:25:17;;;;;;;1999.90;999.90;;;;;;;15.77;82.71;100418.34;15802562;28;20119;-59
2021/08/27 03:32:52;;;;;;;1999.90;999.90;;;;;;;15.75;82.61;100420.72;15758648;28;20044;-61
2021/08/27 03:40:27;;;;;;;1999.90;999.90;;;;;;;15.56;82.97;100417.94;15796787;28;20041;-60
2021/08/27 03:48:01;;;;;;;1999.90;999.90;;;;;;;15.25;84.56;100411.34;15758085;28;20122;-60
2021/08/27 03:55:35;;;;;;;;;;;;;;;15.46;83.91;100402.50;15758626;28;20482;-61
2021/08/27 04:03:07;;;;;;;1999.90;999.90;;;;;;;15.45;84.21;100412.13;15785813;28;19928;-61
2021/08/27 04:10:41;;;;;;;1999.90;999.90;;;;;;;15.31;84.37;100418.25;15778657;28;20103;-63
2021/08/27 04:18:13;;;;;;;1999.90;999.90;;;;;;;15.52;83.30;100426.28;15757136;28;20525;-62
2021/08/27 04:25:47;;;;;;;1999.90;999.90;;;;;;;15.63;83.41;100434.13;15799198;28;20040;-61
2021/08/27 04:33:19;;;;;;;;;;;;;;;15.58;82.61;100422.00;15800949;28;20508;-60
2021/08/27 04:40:55;;;;;;;1999.90;999.90;;;;;;;15.74;82.20;100430.34;15757197;28;20018;-62
2021/08/27 04:48:30;;;;;;;1999.90;999.90;;;;;;;15.61;83.01;100431.69;15755130;28;20036;-61
2021/08/27 04:56:05;;;;;;;1999.90;999.90;;;;;;;15.84;82.56;100440.19;15757103;28;20416;-62
2021/08/27 05:03:37;;;;;;;1999.90;999.90;;;;;;;15.65;83.35;100437.41;15778156;28;20048;-63
2021/08/27 05:11:11;;;;;;;1999.90;999.90;;;;;;;15.91;82.89;100445.09;15754184;28;20054;-62
2021/08/27 05:18:46;;;;;;;1999.90;999.90;;;;;;;16.01;82.11;100450.09;15753091;28;20128;-62
2021/08/27 05:26:20;;;;;;;1999.90;999.90;;;;;;;16.05;82.59;100454.59;15772119;28;20452;-62
2021/08/27 05:33:52;;;;;;;;;;;;;;;16.27;81.37;100454.97;15741603;28;20090;-63
2021/08/27 05:41:25;;;;;;;1999.90;999.90;;;;;;;16.49;81.11;100454.09;15781314;28;20036;-63
2021/08/27 05:48:57;;;;;;;1999.90;999.90;;;;;;;16.35;81.32;100445.41;15774068;28;20161;-62
2021/08/27 05:56:34;;;;;;;1999.90;999.90;;;;;;;16.40;80.69;100457.16;15801029;28;20086;-63
2021/08/27 06:04:06;;;;;;;1999.90;999.90;;;;;;;16.49;80.89;100459.72;15801508;28;20040;-62
2021/08/27 06:11:40;;;;;;;1999.90;999.90;;;;;;;16.67;80.75;100465.59;15801698;28;20544;-63
2021/08/27 06:19:12;;;;;;;1999.90;999.90;;;;;;;16.70;80.83;100474.16;15799979;28;20144;-63
2021/08/27 06:26:49;;;;;;;1999.90;999.90;;;;;;;17.02;79.45;100477.41;15783384;28;20083;-61
2021/08/27 06:34:21;;;;;;;1999.90;999.90;;;;;;;17.03;79.06;100478.22;15738683;28;20044;-64
2021/08/27 06:41:55;;;;;;;1999.90;999.90;;;;;;;17.41;79.36;100481.94;15737973;28;20053;-63
2021/08/27 06:49:29;;;;;;;1999.90;999.90;;;;;;;18.77;76.39;100493.28;15742635;28;20420;-60
2021/08/27 06:57:03;;;;;;;1999.90;999.90;;;;;;;19.04;73.12;100489.00;15828732;28;20062;-62
2021/08/27 07:04:36;;;;;;;1999.90;999.90;;;;;;;19.12;72.26;100494.69;15871725;28;20458;-64
2021/08/27 07:12:13;;;;;;;1999.90;999.90;;;;;;;18.93;71.15;100488.13;15869476;28;20052;-63
2021/08/27 07:19:45;;;;;;;1999.90;999.90;;;;;;;18.58;71.50;100500.00;15868722;28;20497;-65
2021/08/27 07:27:19;;;;;;;1999.90;999.90;;;;;;;18.40;72.80;100501.88;15867424;28;20167;-64
2021/08/27 07:34:51;;;;;;;1999.90;999.90;;;;;;;18.51;70.87;100504.78;15871155;28;20032;-63
2021/08/27 07:42:25;;;;;;;1999.90;999.90;;;;;;;19.51;67.51;100495.66;15847520;28;20075;-65
2021/08/27 07:49:57;;;;;;;1999.90;999.90;;;;;;;18.97;69.70;100502.31;15809639;28;20496;-64
2021/08/27 07:57:33;;;;;;;1999.90;999.90;;;;;;;19.26;69.82;100521.00;15814260;28;20574;-63
2021/08/27 08:05:07;;;;;;;1999.90;999.90;;;;;;;20.84;66.47;100507.94;15810706;28;20085;-64
2021/08/27 08:12:40;;;;;;;1999.90;999.90;;;;;;;21.33;62.65;100507.81;15809012;28;20051;-62
2021/08/27 08:20:13;;;;;;;1999.90;999.90;;;;;;;20.89;61.63;100519.69;15808199;28;20417;-64
2021/08/27 08:27:47;;;;;;;;;;;;;;;20.20;63.97;100522.91;15781172;28;20105;-62
2021/08/27 08:35:20;;;;;;;1999.90;999.90;;;;;;;20.81;61.27;100520.91;15725137;28;19927;-62
2021/08/27 08:42:58;;;;;;;1999.90;999.90;;;;;;;21.32;59.57;100528.91;15742848;28;20048;-63
2021/08/27 08:50:32;;;;;;;1999.90;999.90;;;;;;;21.34;59.54;100522.81;15740665;28;20045;-63
2021/08/27 08:58:06;;;;;;;1999.90;999.90;;;;;;;21.11;58.18;100540.28;15722510;28;20382;-62
2021/08/27 09:05:49;;;;;;;1999.90;999.90;;;;;;;20.69;59.98;100539.16;15740986;28;20102;-62
2021/08/27 09:13:32;;;;;;;1999.90;999.90;;;;;;;20.07;61.96;100555.69;15740264;28;20072;-63
2021/08/27 09:21:36;;;;;;;1999.90;999.90;;;;;;;20.44;63.90;100547.69;15740393;28;20056;-62
2021/08/27 09:29:12;;;;;;;1999.90;999.90;;;;;;;20.23;62.74;100558.16;15759623;28;20074;-62
2021/08/27 09:36:57;;;;;;;1999.90;999.90;;;;;;;19.37;65.19;100568.34;15803021;28;20414;-62
2021/08/27 09:44:31;;;;;;;1999.90;999.90;;;;;;;19.60;64.51;100566.06;15801339;28;20412;-62
2021/08/27 09:52:10;;;;;;;1999.90;999.90;;;;;;;19.82;63.77;100569.78;15801618;28;20055;-61
2021/08/27 09:59:47;;;;;;;1999.90;999.90;;;;;;;20.10;61.96;100588.88;15802213;28;20105;-60
2021/08/27 10:07:28;;;;;;;1999.90;999.90;;;;;;;21.41;58.99;100576.72;15802365;28;20458;-61
2021/08/27 10:15:03;;;;;;;1999.90;999.90;;;;;;;23.73;51.84;100580.63;15801790;28;20509;-61
2021/08/27 10:22:36;;;;;;;1999.90;999.90;;;;;;;24.10;51.12;100582.59;15769884;28;20044;-61
2021/08/27 10:30:10;;;;;;;1999.90;999.90;;;;;;;22.15;54.50;100566.25;15859787;28;20058;-61
2021/08/27 10:37:43;;;;;;;1999.90;999.90;;;;;;;21.29;57.84;100571.50;15867384;28;20434;-60
2021/08/27 10:45:17;;;;;;;;;;;;;;;21.86;52.78;100571.25;15762426;28;20080;-61
2021/08/27 10:52:50;;;;;;;1999.90;999.90;;;;;;;24.18;51.65;100576.34;15748793;28;20343;-60
2021/08/27 11:00:41;;;;;;;1999.90;999.90;;;;;;;22.68;52.07;100582.09;15746629;28;20486;-60
2021/08/27 11:08:15;;;;;;;1999.90;999.90;;;;;;;21.74;53.50;100583.09;15745696;28;20498;-61
2021/08/27 11:15:53;;;;;;;1999.90;999.90;;;;;;;20.86;55.38;100582.09;15792770;28;20044;-60
2021/08/27 11:23:25;;;;;;;1999.90;999.90;;;;;;;22.32;50.33;100590.09;15734052;28;20051;-61
2021/08/27 11:31:04;;;;;;;1999.90;999.90;;;;;;;24.89;46.55;100585.00;15782210;28;20127;-59
2021/08/27 11:38:36;;;;;;;1999.90;999.90;;;;;;;21.84;52.74;100593.59;15746365;28;20036;-64
2021/08/27 11:46:15;;;;;;;1999.90;999.90;;;;;;;21.01;54.38;100598.66;15744713;28;20124;-60
2021/08/27 11:53:48;;;;;;;1999.90;999.90;;;;;;;20.52;53.44;100605.16;15747933;28;20382;-60
2021/08/27 12:01:27;;;;;;;1999.90;999.90;;;;;;;21.38;54.09;100605.94;15742959;28;20051;-60
2021/08/27 12:09:13;;;;;;;1999.90;999.90;;;;;;;22.96;49.43;100601.78;15772054;28;20095;-61
2021/08/27 12:16:47;;;;;;;1999.90;999.90;;;;;;;24.38;45.43;100607.03;15806332;28;20043;-62
2021/08/27 12:24:20;;;;;;;1999.90;999.90;;;;;;;27.98;38.11;100614.19;15804851;28;20520;-59
2021/08/27 12:31:54;;;;;;;1999.90;999.90;;;;;;;26.27;40.35;100621.47;15790942;28;20067;-60
2021/08/27 12:39:29;;;;;;;1999.90;999.90;;;;;;;25.21;42.87;100618.72;15804888;28;20386;-58
2021/08/27 12:47:03;;;;;;;1999.90;999.90;;;;;;;25.41;43.68;100630.19;15804399;28;20046;-60
2021/08/27 12:54:39;;;;;;;1999.90;999.90;;;;;;;21.19;54.79;100627.03;15804839;28;20048;-61
2021/08/27 13:02:22;;;;;;;1999.90;999.90;;;;;;;19.99;56.33;100639.81;15804988;28;20051;-61
2021/08/27 13:10:13;;;;;;;1999.90;999.90;;;;;;;25.40;43.50;100651.41;15804130;28;20075;-58
2021/08/27 13:17:58;;;;;;;1999.90;999.90;;;;;;;27.52;36.68;100653.56;15802575;28;20051;-57
2021/08/27 13:25:31;;;;;;;1999.90;999.90;;;;;;;21.87;52.77;100656.03;15802104;28;20052;-58
2021/08/27 13:33:05;;;;;;;1999.90;999.90;;;;;;;19.59;65.58;100678.47;15768862;28;20044;-60
2021/08/27 13:40:37;;;;;;;1999.90;999.90;;;;;;;18.35;66.15;100674.53;15797827;28;20090;-60
2021/08/27 13:48:13;;;;;;;1999.90;999.90;;;;;;;17.93;67.88;100681.31;15754181;28;20073;-63
2021/08/27 13:55:46;;;;;;;1999.90;999.90;;;;;;;18.16;66.46;100679.16;15791867;28;20127;-60
2021/08/27 14:03:19;;;;;;;1999.90;999.90;;;;;;;18.86;62.86;100686.00;15788445;28;20094;-60
2021/08/27 14:10:51;;;;;;;1999.90;999.90;;;;;;;19.19;63.70;100679.38;15796636;28;20044;-62
2021/08/27 14:18:25;;;;;;;1999.90;999.90;;;;;;;19.61;60.95;100675.25;15770685;28;20053;-61
2021/08/27 14:25:57;;;;;;;1999.90;999.90;;;;;;;19.80;59.38;100674.94;15802500;28;20059;-62
2021/08/27 14:33:32;;;;;;;1999.90;999.90;;;;;;;19.59;61.10;100677.63;15770355;28;20436;-61
2021/08/27 14:41:04;;;;;;;1999.90;999.90;;;;;;;18.98;57.37;100684.88;15782914;28;20041;-59
2021/08/27 14:48:38;;;;;;;1999.90;999.90;;;;;;;18.68;58.54;100699.13;15754750;28;20032;-60
2021/08/27 14:56:11;;;;;;;1999.90;999.90;;;;;;;18.93;58.60;100691.69;15763510;28;20040;-62
2021/08/27 15:03:44;;;;;;;1999.90;999.90;;;;;;;19.56;57.33;100704.72;15792342;28;20409;-60
2021/08/27 15:11:19;;;;;;;1999.90;999.90;;;;;;;19.33;56.46;100709.78;15774983;28;20044;-61
2021/08/27 15:18:53;;;;;;;1999.90;999.90;;;;;;;19.43;57.85;100700.56;15776217;28;20093;-60
2021/08/27 15:26:25;;;;;;;1999.90;999.90;;;;;;;19.97;55.56;100715.88;15775600;28;20047;-59
2021/08/27 15:34:02;;;;;;;1999.90;999.90;;;;;;;19.39;55.38;100713.88;15789135;28;20400;-59
2021/08/27 15:41:34;;;;;;;1999.90;999.90;;;;;;;19.57;55.51;100714.03;15768000;28;20315;-60
2021/08/27 15:49:10;;;;;;;1999.90;999.90;;;;;;;19.73;56.39;100723.03;15764103;28;20436;-60
2021/08/27 15:56:42;;;;;;;1999.90;999.90;;;;;;;19.25;57.56;100734.38;15769905;28;20070;-63
2021/08/27 16:04:18;;;;;;;1999.90;999.90;;;;;;;19.66;58.76;100741.97;15762525;28;20045;-58
2021/08/27 16:11:52;;;;;;;1999.90;999.90;;;;;;;19.51;58.75;100746.72;15767543;28;20124;-63
2021/08/27 16:19:30;;;;;;;1999.90;999.90;;;;;;;19.19;59.11;100761.41;15761761;28;20044;-60
2021/08/27 16:27:05;;;;;;;1999.90;999.90;;;;;;;19.25;58.90;100770.34;15788756;28;20416;-60
2021/08/27 16:34:39;;;;;;;1999.90;999.90;;;;;;;19.28;59.15;100773.22;15743703;28;20063;-61
2021/08/27 16:42:11;;;;;;;1999.90;999.90;;;;;;;19.50;60.52;100787.53;15790254;28;20077;-62
2021/08/27 16:49:44;;;;;;;1999.90;999.90;;;;;;;19.11;59.49;100788.00;15803356;28;20044;-62
2021/08/27 16:57:17;;;;;;;1999.90;999.90;;;;;;;19.38;60.16;100779.31;15782421;28;20040;-59
2021/08/27 17:04:50;;;;;;;1999.90;999.90;;;;;;;19.34;61.20;100790.63;15768672;28;20102;-62
2021/08/27 17:12:22;;;;;;;1999.90;999.90;;;;;;;19.38;61.82;100797.13;15787473;28;20097;-60
2021/08/27 17:19:56;;;;;;;1999.90;999.90;;;;;;;18.58;68.30;100804.34;15769664;28;20044;-63
2021/08/27 17:27:28;;;;;;;1999.90;999.90;;;;;;;17.97;73.66;100814.03;15776313;28;20051;-61
2021/08/27 17:35:02;;;;;;;1999.90;999.90;;;;;;;18.18;73.22;100806.66;15759615;28;20105;-61
2021/08/27 17:42:34;;;;;;;1999.90;999.90;;;;;;;18.40;72.07;100821.09;15745025;28;20056;-61
2021/08/27 17:50:08;;;;;;;1999.90;999.90;;;;;;;18.49;72.39;100832.91;15769284;28;20485;-60
2021/08/27 17:57:42;;;;;;;1999.90;999.90;;;;;;;18.23;72.51;100833.75;15778654;28;20119;-61
2021/08/27 18:05:19;;;;;;;1999.90;999.90;;;;;;;18.23;73.33;100842.22;15750778;28;20040;-62
2021/08/27 18:12:54;;;;;;;1999.90;999.90;;;;;;;17.94;74.41;100855.13;15760029;28;20055;-62
2021/08/27 18:20:28;;;;;;;1999.90;999.90;;;;;;;17.90;74.94;100859.91;15757238;28;20740;-61
2021/08/27 18:28:00;;;;;;;1999.90;999.90;;;;;;;17.88;75.17;100874.38;15759431;28;20097;-62
2021/08/27 18:35:34;;;;;;;1999.90;999.90;;;;;;;17.84;75.17;100879.19;15781777;28;20044;-62
2021/08/27 18:43:06;;;;;;;1999.90;999.90;;;;;;;17.77;75.10;100883.88;15757490;28;20044;-60
2021/08/27 18:50:43;;;;;;;1999.90;999.90;;;;;;;17.86;75.10;100904.19;15782398;28;20359;-62
2021/08/27 18:58:15;;;;;;;1999.90;999.90;;;;;;;17.86;75.05;100910.66;15796904;28;20036;-59
2021/08/27 19:05:49;;;;;;;1999.90;999.90;;;;;;;17.86;74.93;100912.66;15786823;28;20530;-62
2021/08/27 19:13:22;;;;;;;1999.90;999.90;;;;;;;17.77;74.47;100917.75;15783428;28;20047;-63
2021/08/27 19:20:56;;;;;;;1999.90;999.90;;;;;;;17.80;74.48;100929.09;15783915;28;20040;-62
2021/08/27 19:28:31;;;;;;;1999.90;999.90;;;;;;;17.62;75.14;100921.50;15772324;28;20083;-63
2021/08/27 19:36:08;;;;;;;1999.90;999.90;;;;;;;17.64;75.93;100927.56;15773276;28;20389;-65
2021/08/27 19:43:44;;;;;;;1999.90;999.90;;;;;;;17.59;76.24;100923.03;15788383;28;20496;-63
2021/08/27 19:51:17;;;;;;;1999.90;999.90;;;;;;;17.64;75.46;100921.94;15780073;28;20517;-62
2021/08/27 19:58:49;;;;;;;1999.90;999.90;;;;;;;17.63;75.40;100934.41;15782238;28;20059;-60
2021/08/27 20:06:23;;;;;;;1999.90;999.90;;;;;;;17.66;75.37;100942.13;15779075;28;20043;-60
2021/08/27 20:13:58;;;;;;;1999.90;999.90;;;;;;;17.49;75.85;100947.03;15780240;28;20047;-58
2021/08/27 20:21:31;;;;;;;1999.90;999.90;;;;;;;17.49;75.60;100949.88;15791771;28;20490;-58
2021/08/27 20:29:04;;;;;;;1999.90;999.90;;;;;;;17.36;76.23;100950.41;15775156;28;20140;-63
2021/08/27 20:36:37;;;;;;;1999.90;999.90;;;;;;;17.44;76.26;100961.47;15786591;28;20044;-59
2021/08/27 20:44:10;;;;;;;1999.90;999.90;;;;;;;17.38;76.19;100964.97;15802407;28;20552;-60
2021/08/27 20:51:44;;;;;;;1999.90;999.90;;;;;;;17.36;76.46;100965.34;15789124;28;20409;-63
2021/08/27 20:59:23;;;;;;;1999.90;999.90;;;;;;;17.36;76.30;100962.53;15791263;28;20044;-60
2021/08/27 21:06:57;;;;;;;1999.90;999.90;;;;;;;17.39;75.81;100958.13;15782939;28;20071;-62
2021/08/27 21:14:31;;;;;;;1999.90;999.90;;;;;;;17.28;76.19;100961.56;15771999;28;20086;-57
2021/08/27 21:22:08;;;;;;;1999.90;999.90;;;;;;;17.19;76.48;100960.16;15751561;28;20044;-61
2021/08/27 21:29:40;;;;;;;1999.90;999.90;;;;;;;17.31;75.52;100957.19;15770768;28;20050;-61
2021/08/27 21:37:14;;;;;;;1999.90;999.90;;;;;;;17.31;76.00;100960.81;15749542;28;20159;-59
2021/08/27 21:44:47;;;;;;;1999.90;999.90;;;;;;;17.25;76.41;100965.13;15738692;28;20045;-63
2021/08/27 21:52:20;;;;;;;1999.90;999.90;;;;;;;17.20;76.76;100964.63;15781424;28;20498;-60
2021/08/27 21:59:52;;;;;;;1999.90;999.90;;;;;;;17.22;76.48;100965.06;15781446;28;20094;-60
2021/08/27 22:07:29;;;;;;;1999.90;999.90;;;;;;;17.26;76.50;100974.41;15779391;28;20052;-64
2021/08/27 22:15:01;;;;;;;1999.90;999.90;;;;;;;17.20;76.37;100965.44;15785662;28;20051;-65
2021/08/27 22:22:37;;;;;;;1999.90;999.90;;;;;;;17.27;75.89;100968.38;15792244;28;20052;-57
2021/08/27 22:30:10;;;;;;;1999.90;999.90;;;;;;;17.23;75.90;100975.97;15756170;28;20044;-61
2021/08/27 22:37:44;;;;;;;1999.90;999.90;;;;;;;17.19;76.41;100975.06;15785664;28;20040;-62
2021/08/27 22:45:16;;;;;;;1999.90;999.90;;;;;;;17.13;76.57;100981.41;15795406;28;20082;-59
2021/08/27 22:52:50;;;;;;;1999.90;999.90;;;;;;;17.18;76.69;100987.53;15788040;28;20234;-60
2021/08/27 23:00:28;;;;;;;1999.90;999.90;;;;;;;17.11;77.27;100984.59;15793788;28;20512;-61
2021/08/27 23:08:05;;;;;;;1999.90;999.90;;;;;;;17.12;77.28;100980.56;15789639;28;20036;-59
2021/08/27 23:15:39;;;;;;;1999.90;999.90;;;;;;;17.12;77.09;100986.22;15749056;28;20333;-60
2021/08/27 23:23:13;;;;;;;1999.90;999.90;;;;;;;16.97;77.40;100985.09;15772985;28;20509;-62
2021/08/27 23:30:45;;;;;;;1999.90;999.90;;;;;;;16.97;77.68;100985.09;15788957;28;20047;-62
2021/08/27 23:38:19;;;;;;;1999.90;999.90;;;;;;;16.91;77.95;100980.94;15790571;28;20135;-61
2021/08/27 23:45:51;;;;;;;1999.90;999.90;;;;;;;16.84;78.48;100983.59;15777219;28;20052;-61
2021/08/27 23:53:28;;;;;;;1999.90;999.90;;;;;;;16.88;78.00;100984.50;15796916;28;20127;-62
